Time;durP1;ratioP1;P1;durP2;ratioP2;P2;SDS_P1;SDS_P2;PMS_P1;PMS_P2;Temp;Humidity;BMP_temperature;BMP_pressure;BME280_temperature;BME280_humidity;BME280_pressure;Samples;Min_cycle;Max_cycle;Signal;HPM_P1;HPM_P2
2022/05/31 00:01:52;;;;;;;6.95;5.00;;;9.60;99.90;;;;;;4900672;29;20063;-75
2022/05/31 00:04:19;;;;;;;4.97;3.40;;;9.50;99.90;;;;;;4888573;29;20123;-76
2022/05/31 00:06:45;;;;;;;4.45;3.22;;;9.50;99.90;;;;;;4889508;29;20143;-77
2022/05/31 00:09:12;;;;;;;3.13;2.67;;;9.50;99.90;;;;;;4906228;29;20139;-77
2022/05/31 00:11:41;;;;;;;3.88;3.00;;;9.50;99.90;;;;;;4906273;29;20364;-77
2022/05/31 00:14:07;;;;;;;4.82;3.55;;;9.50;99.90;;;;;;4889667;29;20119;-76
2022/05/31 00:16:33;;;;;;;5.20;3.35;;;9.40;99.90;;;;;;4906156;29;20095;-76
2022/05/31 00:18:58;;;;;;;4.60;3.63;;;9.40;99.90;;;;;;4901849;29;20087;-76
2022/05/31 00:21:39;;;;;;;10.27;3.92;;;9.40;99.90;;;;;;4900995;29;20052;-76
2022/05/31 00:24:07;;;;;;;4.43;3.20;;;9.40;99.90;;;;;;4919102;29;20107;-76
2022/05/31 00:26:33;;;;;;;3.92;2.95;;;9.40;99.90;;;;;;4918738;29;20457;-76
2022/05/31 00:28:59;;;;;;;4.10;2.97;;;9.40;99.90;;;;;;4911343;29;20143;-76
2022/05/31 00:31:25;;;;;;;5.00;3.58;;;9.40;99.90;;;;;;4902960;29;20052;-76
2022/05/31 00:33:50;;;;;;;4.45;3.30;;;9.30;99.90;;;;;;4873706;29;20056;-76
2022/05/31 00:36:16;;;;;;;4.72;2.97;;;9.30;99.90;;;;;;4915057;29;20056;-76
2022/05/31 00:38:42;;;;;;;3.28;2.97;;;9.30;99.90;;;;;;4899912;29;20048;-76
2022/05/31 00:41:23;;;;;;;5.15;3.20;;;9.30;99.90;;;;;;4900286;29;20059;-76
2022/05/31 00:44:00;;;;;;;3.72;2.88;;;9.20;99.90;;;;;;4902041;29;20119;-76
2022/05/31 00:46:33;;;;;;;4.68;3.45;;;9.20;99.90;;;;;;4899403;29;20068;-77
2022/05/31 00:49:03;;;;;;;3.88;2.60;;;9.20;99.90;;;;;;4906183;29;20052;-76
2022/05/31 00:51:39;;;;;;;3.10;2.60;;;9.10;99.90;;;;;;4900972;29;20052;-77
2022/05/31 00:54:07;;;;;;;;;;;9.10;99.90;;;;;;4900826;29;20059;-76
2022/05/31 00:56:34;;;;;;;4.07;2.70;;;9.00;99.90;;;;;;4904104;29;19962;-76
2022/05/31 00:58:59;;;;;;;3.08;2.50;;;9.00;99.90;;;;;;4905575;29;20044;-76
2022/05/31 01:01:27;;;;;;;3.90;3.22;;;9.00;99.90;;;;;;4921120;29;20130;-77
2022/05/31 01:03:54;;;;;;;3.92;3.03;;;9.00;99.90;;;;;;4920975;29;20052;-76
2022/05/31 01:06:20;;;;;;;2.97;2.67;;;9.00;99.90;;;;;;4891676;29;20556;-77
2022/05/31 01:08:46;;;;;;;4.03;2.70;;;9.00;99.90;;;;;;4907126;29;20509;-76
2022/05/31 01:11:22;;;;;;;5.57;3.00;;;8.90;99.90;;;;;;4892076;29;20055;-76
2022/05/31 01:13:48;;;;;;;3.65;2.97;;;8.90;99.90;;;;;;4907136;29;20111;-76
2022/05/31 01:16:15;;;;;;;3.65;2.88;;;8.90;99.90;;;;;;4892378;29;20048;-76
2022/05/31 01:18:42;;;;;;;3.97;3.25;;;8.90;99.90;;;;;;4886092;29;20515;-76
2022/05/31 01:21:08;;;;;;;4.00;3.00;;;8.80;99.90;;;;;;4904711;29;20206;-77
2022/05/31 01:23:57;;;;;;;3.97;2.90;;;8.80;99.90;;;;;;4904103;29;20059;-77
2022/05/31 01:26:35;;;;;;;3.10;2.80;;;8.80;99.90;;;;;;4909537;29;20553;-77
2022/05/31 01:29:00;;;;;;;3.88;2.85;;;8.70;99.90;;;;;;4902361;29;20059;-77
2022/05/31 01:31:34;;;;;;;3.83;2.80;;;8.70;99.90;;;;;;4906423;29;20056;-77
2022/05/31 01:34:29;;;;;;;4.57;2.90;;;8.70;99.90;;;;;;4903596;29;20064;-77
2022/05/31 01:36:57;;;;;;;3.65;2.75;;;8.60;99.90;;;;;;4919546;29;20056;-76
2022/05/31 01:39:28;;;;;;;4.55;2.83;;;8.60;99.90;;;;;;4903917;29;20052;-78
2022/05/31 01:42:07;;;;;;;4.85;2.75;;;8.60;99.90;;;;;;4892242;29;20104;-77
2022/05/31 01:44:37;;;;;;;5.63;3.03;;;8.60;99.90;;;;;;4887935;29;20127;-77
2022/05/31 01:47:04;;;;;;;4.35;2.95;;;8.60;99.90;;;;;;4907431;29;20382;-77
2022/05/31 01:49:36;;;;;;;5.28;2.72;;;8.50;99.90;;;;;;4922095;29;20146;-75
2022/05/31 01:52:03;;;;;;;3.53;2.70;;;8.50;99.90;;;;;;4909943;29;20089;-75
2022/05/31 01:54:30;;;;;;;3.60;2.58;;;8.50;99.90;;;;;;4889308;29;20047;-76
2022/05/31 01:56:58;;;;;;;4.28;3.10;;;8.50;99.90;;;;;;4906821;29;20170;-76
2022/05/31 01:59:26;;;;;;;3.25;2.92;;;8.50;99.90;;;;;;4909060;29;20044;-75
2022/05/31 02:01:54;;;;;;;4.25;2.83;;;8.50;99.90;;;;;;4920593;29;20096;-75
2022/05/31 02:04:20;;;;;;;3.72;2.90;;;8.40;99.90;;;;;;4871994;29;20083;-75
2022/05/31 02:06:45;;;;;;;3.00;2.70;;;8.40;99.90;;;;;;4901861;29;20047;-76
2022/05/31 02:09:13;;;;;;;4.35;3.22;;;8.40;99.90;;;;;;4914631;29;20051;-76
2022/05/31 02:11:40;;;;;;;3.40;2.38;;;8.40;99.90;;;;;;4901960;29;20443;-76
2022/05/31 02:14:09;;;;;;;4.25;2.60;;;8.30;99.90;;;;;;4893541;29;20044;-76
2022/05/31 02:16:35;;;;;;;4.40;2.92;;;8.30;99.90;;;;;;4903435;29;20040;-76
2022/05/31 02:19:23;;;;;;;3.45;2.88;;;8.30;99.90;;;;;;4887363;29;20051;-76
2022/05/31 02:21:50;;;;;;;4.05;2.50;;;8.30;99.90;;;;;;4902247;29;20055;-77
2022/05/31 02:24:16;;;;;;;3.50;2.53;;;8.30;99.90;;;;;;4905991;29;20947;-76
2022/05/31 02:26:43;;;;;;;4.32;2.78;;;8.30;99.90;;;;;;4902037;29;20064;-76
2022/05/31 02:29:12;;;;;;;3.85;2.67;;;8.30;99.90;;;;;;4904056;29;20056;-76
2022/05/31 02:31:39;;;;;;;3.03;2.38;;;8.50;99.90;;;;;;4916619;29;20107;-76
2022/05/31 02:34:05;;;;;;;3.88;2.58;;;8.30;99.90;;;;;;4908178;29;20055;-77
2022/05/31 02:36:31;;;;;;;3.60;2.63;;;8.30;99.90;;;;;;4918658;29;20060;-76
2022/05/31 02:38:57;;;;;;;4.13;2.35;;;8.40;99.90;;;;;;4918998;29;20387;-76
2022/05/31 02:41:23;;;;;;;3.72;2.92;;;8.30;99.90;;;;;;4890957;29;20096;-76
2022/05/31 02:43:49;;;;;;;2.70;2.20;;;8.30;99.90;;;;;;4907123;29;20052;-76
2022/05/31 02:46:15;;;;;;;3.92;2.40;;;9.00;99.90;;;;;;4919097;29;20048;-76
2022/05/31 02:48:41;;;;;;;5.93;2.65;;;8.30;99.90;;;;;;4904931;29;20047;-76
2022/05/31 02:51:07;;;;;;;4.53;2.35;;;8.30;99.90;;;;;;4886465;29;20052;-76
2022/05/31 02:53:32;;;;;;;2.75;2.50;;;8.30;99.90;;;;;;4907271;29;20055;-76
2022/05/31 02:55:58;;;;;;;3.83;2.40;;;8.30;99.90;;;;;;4907906;29;20052;-77
2022/05/31 02:58:25;;;;;;;3.63;2.70;;;8.30;99.90;;;;;;4906653;29;20055;-76
2022/05/31 03:00:51;;;;;;;4.85;2.92;;;8.30;99.90;;;;;;4884727;29;20131;-76
2022/05/31 03:03:17;;;;;;;3.38;2.70;;;8.80;99.90;;;;;;4886108;29;20045;-76
2022/05/31 03:05:42;;;;;;;3.88;2.50;;;8.30;99.90;;;;;;4905376;29;20107;-76
2022/05/31 03:08:08;;;;;;;2.95;2.42;;;8.20;99.90;;;;;;4903831;29;20414;-76
2022/05/31 03:10:38;;;;;;;4.03;2.35;;;8.20;99.90;;;;;;4897138;29;20059;-76
2022/05/31 03:13:04;;;;;;;3.70;2.80;;;8.20;99.90;;;;;;4906489;29;20126;-76
2022/05/31 03:15:33;;;;;;;4.13;2.47;;;8.20;99.90;;;;;;4921578;29;20044;-76
2022/05/31 03:18:07;;;;;;;3.95;2.55;;;8.20;99.90;;;;;;4918349;29;20052;-76
2022/05/31 03:20:44;;;;;;;3.17;2.88;;;8.20;99.90;;;;;;4901335;29;20448;-76
2022/05/31 03:23:25;;;;;;;3.90;2.72;;;8.20;99.90;;;;;;4901043;29;20491;-76
2022/05/31 03:25:53;;;;;;;5.18;3.10;;;8.20;99.90;;;;;;4919071;29;20111;-76
2022/05/31 03:28:20;;;;;;;4.55;2.78;;;8.20;99.90;;;;;;4906464;29;20119;-76
2022/05/31 03:30:45;;;;;;;3.55;2.83;;;8.30;99.90;;;;;;4890846;29;20055;-76
2022/05/31 03:33:13;;;;;;;4.88;2.97;;;8.20;99.90;;;;;;4906080;29;20541;-76
2022/05/31 03:35:39;;;;;;;3.40;2.60;;;8.20;99.90;;;;;;4889383;29;20056;-76
2022/05/31 03:38:05;;;;;;;3.97;2.80;;;8.20;99.90;;;;;;4917359;29;20055;-76
2022/05/31 03:43:15;;;;;;;3.45;2.70;;;8.10;99.90;;;;;;4891777;29;20052;-76
2022/05/31 03:45:43;;;;;;;4.93;3.00;;;8.10;99.90;;;;;;4886001;29;20083;-76
2022/05/31 03:48:10;;;;;;;4.60;2.60;;;8.10;99.90;;;;;;4873737;29;20059;-75
2022/05/31 03:50:40;;;;;;;3.15;2.60;;;8.10;99.90;;;;;;4905907;29;20059;-77
2022/05/31 03:53:08;;;;;;;4.18;3.00;;;8.10;99.90;;;;;;4911504;29;20060;-77
2022/05/31 03:55:52;;;;;;;5.18;2.72;;;8.10;99.90;;;;;;4904150;29;20118;-77
2022/05/31 03:58:18;;;;;;;3.42;2.80;;;8.20;99.90;;;;;;4905387;29;20172;-76
2022/05/31 04:00:44;;;;;;;3.42;2.85;;;8.30;99.90;;;;;;4903562;29;21376;-77
2022/05/31 04:03:10;;;;;;;3.40;2.80;;;8.20;99.90;;;;;;4905165;29;20052;-77
2022/05/31 04:05:35;;;;;;;3.67;2.80;;;8.20;99.90;;;;;;4883229;29;20055;-77
2022/05/31 04:08:06;;;;;;;3.28;2.70;;;8.40;99.90;;;;;;4905836;29;20545;-78
2022/05/31 04:10:32;;;;;;;3.83;2.97;;;8.30;99.90;;;;;;4884115;29;20130;-77
2022/05/31 04:12:59;;;;;;;4.38;2.80;;;8.30;99.90;;;;;;4904921;29;20493;-77
2022/05/31 04:15:25;;;;;;;4.72;3.22;;;8.30;99.90;;;;;;4905242;29;20128;-77
2022/05/31 04:17:51;;;;;;;3.63;2.80;;;8.40;99.90;;;;;;4914422;29;20062;-78
2022/05/31 04:20:17;;;;;;;4.68;2.70;;;8.40;99.90;;;;;;4902073;29;20044;-77
2022/05/31 04:22:43;;;;;;;3.25;2.50;;;8.50;99.90;;;;;;4901617;29;20123;-78
2022/05/31 04:25:08;;;;;;;4.22;2.67;;;8.50;99.90;;;;;;4888342;29;20538;-77
2022/05/31 04:27:34;;;;;;;3.75;3.20;;;8.50;99.90;;;;;;4869910;29;20174;-77
2022/05/31 04:30:00;;;;;;;4.80;3.20;;;8.60;99.90;;;;;;4900737;29;20059;-78
2022/05/31 04:32:26;;;;;;;3.78;3.17;;;8.60;99.90;;;;;;4900627;29;20097;-78
2022/05/31 04:34:52;;;;;;;4.30;3.13;;;8.60;99.90;;;;;;4900019;29;20084;-77
2022/05/31 04:37:19;;;;;;;4.68;3.45;;;8.60;99.90;;;;;;4902905;29;20072;-77
2022/05/31 04:39:44;;;;;;;4.15;3.40;;;8.70;99.90;;;;;;4917184;29;20060;-77
2022/05/31 04:42:11;;;;;;;4.53;2.90;;;8.70;99.90;;;;;;4885862;29;20071;-76
2022/05/31 04:44:37;;;;;;;3.65;2.83;;;8.80;99.90;;;;;;4885580;29;20048;-77
2022/05/31 04:47:05;;;;;;;4.68;2.60;;;8.80;99.90;;;;;;4900758;29;20177;-77
2022/05/31 04:49:31;;;;;;;4.85;2.92;;;8.90;99.90;;;;;;4904459;29;20352;-77
2022/05/31 04:51:57;;;;;;;4.93;3.38;;;8.90;99.90;;;;;;4870718;29;20084;-77
2022/05/31 04:54:24;;;;;;;3.35;2.65;;;8.90;99.90;;;;;;4904226;29;20065;-77
2022/05/31 04:56:52;;;;;;;3.92;2.90;;;9.00;99.90;;;;;;4906038;29;20048;-77
2022/05/31 04:59:19;;;;;;;5.35;3.05;;;9.00;99.90;;;;;;4917043;29;20045;-76
2022/05/31 05:01:45;;;;;;;3.60;2.80;;;9.10;99.90;;;;;;4905924;29;20060;-77
2022/05/31 05:04:12;;;;;;;3.90;3.10;;;9.00;99.90;;;;;;4915058;29;20067;-77
2022/05/31 05:06:38;;;;;;;3.53;2.85;;;9.10;99.90;;;;;;4873772;29;20072;-77
2022/05/31 05:09:04;;;;;;;4.90;2.97;;;9.10;99.90;;;;;;4901837;29;20055;-77
2022/05/31 05:11:32;;;;;;;3.50;2.63;;;9.10;99.90;;;;;;4889898;29;20071;-76
2022/05/31 05:13:58;;;;;;;3.90;2.97;;;9.20;99.90;;;;;;4915710;29;20589;-76
2022/05/31 05:16:25;;;;;;;3.50;2.90;;;9.20;99.90;;;;;;4889715;29;20044;-77
2022/05/31 05:18:51;;;;;;;4.85;3.38;;;9.20;99.90;;;;;;4871957;29;20060;-76
2022/05/31 05:21:17;;;;;;;7.63;3.90;;;9.30;99.90;;;;;;4904816;29;20052;-75
2022/05/31 05:23:43;;;;;;;5.88;3.05;;;9.30;99.90;;;;;;4887172;29;20044;-77
2022/05/31 05:26:09;;;;;;;5.38;3.03;;;9.40;99.90;;;;;;4906734;29;20047;-77
2022/05/31 05:31:27;;;;;;;3.78;2.85;;;9.50;99.90;;;;;;4900844;29;20048;-76
2022/05/31 05:33:53;;;;;;;4.45;3.10;;;9.60;99.90;;;;;;4904362;29;20055;-79
2022/05/31 05:36:19;;;;;;;4.35;3.30;;;9.70;99.90;;;;;;4889997;29;20051;-76
2022/05/31 05:38:46;;;;;;;3.30;2.92;;;9.80;99.90;;;;;;4899194;29;20045;-76
2022/05/31 05:41:11;;;;;;;4.50;3.40;;;9.80;99.90;;;;;;4899899;29;20667;-76
2022/05/31 05:43:37;;;;;;;3.92;3.20;;;9.90;99.90;;;;;;4915517;29;20159;-77
2022/05/31 05:46:10;;;;;;;3.80;2.72;;;10.00;99.90;;;;;;4904891;29;20067;-76
2022/05/31 05:48:35;;;;;;;5.90;3.40;;;10.10;99.90;;;;;;4904336;29;20533;-77
2022/05/31 05:51:01;;;;;;;6.00;3.22;;;10.20;99.90;;;;;;4880782;29;20070;-78
2022/05/31 05:53:28;;;;;;;4.38;3.40;;;10.30;99.90;;;;;;4888072;29;20664;-75
2022/05/31 05:55:53;;;;;;;3.95;2.97;;;10.40;99.90;;;;;;4903471;29;20409;-76
2022/05/31 05:58:19;;;;;;;5.35;3.15;;;10.60;99.90;;;;;;4919747;29;20052;-77
2022/05/31 06:00:52;;;;;;;4.47;2.60;;;10.70;99.90;;;;;;4887046;29;20558;-78
2022/05/31 06:03:50;;;;;;;4.80;2.97;;;10.90;99.90;;;;;;4888444;29;20842;-77
2022/05/31 06:06:17;;;;;;;4.20;2.92;;;11.00;99.90;;;;;;4902468;29;20056;-77
2022/05/31 06:09:03;;;;;;;5.47;3.13;;;11.20;99.90;;;;;;4906465;29;20054;-76
2022/05/31 06:11:35;;;;;;;;;;;11.30;99.90;;;;;;4920318;29;20059;-76
2022/05/31 06:14:17;;;;;;;3.30;2.80;;;11.40;99.90;;;;;;4903511;29;19981;-78
2022/05/31 06:16:47;;;;;;;5.07;2.88;;;11.50;99.90;;;;;;4892044;29;20040;-77
2022/05/31 06:19:19;;;;;;;3.60;3.00;;;11.70;99.90;;;;;;4912726;29;20154;-76
2022/05/31 06:21:46;;;;;;;4.65;2.88;;;11.80;99.90;;;;;;4918608;29;20047;-78
2022/05/31 06:24:12;;;;;;;3.85;2.58;;;11.90;99.90;;;;;;4885941;29;20058;-76
2022/05/31 06:26:39;;;;;;;3.75;2.60;;;11.90;99.90;;;;;;4890793;29;20054;-76
2022/05/31 06:29:05;;;;;;;4.00;3.10;;;12.00;99.90;;;;;;4921235;29;20048;-77
2022/05/31 06:31:31;;;;;;;3.33;2.88;;;12.00;99.90;;;;;;4892347;29;20111;-77
2022/05/31 06:33:56;;;;;;;3.60;3.08;;;12.00;99.90;;;;;;4907533;29;20048;-76
2022/05/31 06:36:22;;;;;;;3.70;2.80;;;12.10;99.90;;;;;;4891322;29;20051;-76
2022/05/31 06:38:48;;;;;;;3.42;2.60;;;12.20;99.90;;;;;;4916487;29;20475;-76
2022/05/31 06:41:14;;;;;;;4.95;3.00;;;12.30;99.90;;;;;;4889077;29;20698;-76
2022/05/31 06:43:41;;;;;;;4.05;2.75;;;12.40;99.90;;;;;;4887449;29;20107;-77
2022/05/31 06:46:09;;;;;;;3.63;2.75;;;12.50;99.90;;;;;;4902895;29;20079;-76
2022/05/31 06:48:35;;;;;;;3.22;2.60;;;12.60;99.90;;;;;;4902811;29;20052;-78
2022/05/31 06:51:10;;;;;;;3.83;2.90;;;12.70;99.90;;;;;;4910581;29;20063;-77
2022/05/31 06:59:05;;;;;;;5.38;3.17;;;13.10;99.90;;;;;;4905869;29;20048;-76
2022/05/31 07:01:37;;;;;;;3.90;2.90;;;13.30;99.90;;;;;;4891212;29;20059;-76
2022/05/31 07:04:04;;;;;;;5.45;3.03;;;13.40;99.90;;;;;;4903494;29;20048;-77
2022/05/31 07:06:32;;;;;;;5.05;3.70;;;13.60;99.90;;;;;;4900811;29;20058;-76
2022/05/31 07:08:57;;;;;;;3.95;2.83;;;13.80;99.90;;;;;;4889097;29;20044;-79
2022/05/31 07:11:23;;;;;;;4.30;2.83;;;13.90;99.90;;;;;;4889445;29;20064;-79
2022/05/31 07:13:49;;;;;;;3.65;2.85;;;14.10;99.90;;;;;;4887635;29;20079;-77
2022/05/31 07:16:15;;;;;;;4.03;2.80;;;14.40;99.90;;;;;;4912800;29;20055;-82
2022/05/31 07:18:42;;;;;;;6.13;3.30;;;14.70;99.90;;;;;;4911373;29;20052;-83
2022/05/31 07:21:08;;;;;;;3.67;2.70;;;14.90;99.90;;;;;;4909990;29;20546;-85
2022/05/31 07:23:34;;;;;;;3.97;2.75;;;15.10;99.90;;;;;;4908192;29;20043;-83
2022/05/31 07:26:02;;;;;;;4.63;2.95;;;15.20;99.90;;;;;;4891450;29;20056;-79
2022/05/31 07:28:28;;;;;;;3.72;2.75;;;15.20;99.90;;;;;;4905413;29;20088;-78
2022/05/31 07:30:55;;;;;;;5.25;2.83;;;15.30;99.90;;;;;;4911787;29;20066;-78
2022/05/31 07:33:21;;;;;;;4.85;3.08;;;15.50;99.90;;;;;;4871974;29;20162;-76
2022/05/31 07:35:49;;;;;;;4.90;3.15;;;15.70;99.90;;;;;;4916811;29;20052;-78
2022/05/31 07:38:15;;;;;;;7.47;3.40;;;15.90;99.90;;;;;;4893337;29;20544;-78
2022/05/31 07:40:42;;;;;;;4.10;3.10;;;16.10;99.90;;;;;;4911553;29;20166;-78
2022/05/31 07:43:08;;;;;;;6.82;3.55;;;16.20;99.90;;;;;;4902920;29;20064;-79
2022/05/31 07:45:34;;;;;;;4.25;3.45;;;16.10;99.90;;;;;;4917360;29;20261;-78
2022/05/31 07:48:00;;;;;;;4.78;3.60;;;16.10;99.90;;;;;;4905211;29;20049;-78
2022/05/31 07:50:26;;;;;;;3.97;3.50;;;16.10;99.90;;;;;;4872634;29;20076;-78
2022/05/31 07:52:51;;;;;;;5.40;3.67;;;16.00;99.90;;;;;;4905191;29;20064;-78
2022/05/31 07:55:17;;;;;;;3.63;2.88;;;16.10;99.90;;;;;;4893741;29;20542;-78
2022/05/31 08:00:27;;;;;;;5.95;3.83;;;16.60;99.90;;;;;;4904492;29;20048;-78
2022/05/31 08:02:53;;;;;;;5.72;3.50;;;16.90;99.90;;;;;;4870569;29;20052;-78
2022/05/31 08:05:19;;;;;;;4.43;3.15;;;17.10;99.90;;;;;;4920484;29;20040;-78
2022/05/31 08:07:45;;;;;;;6.70;3.60;;;17.00;99.90;;;;;;4907654;29;20459;-76
2022/05/31 08:10:11;;;;;;;5.55;3.38;;;17.10;99.90;;;;;;4894873;29;20408;-77
2022/05/31 08:12:36;;;;;;;5.50;3.50;;;17.20;99.90;;;;;;4907423;29;20128;-78
2022/05/31 08:15:04;;;;;;;5.82;3.30;;;17.40;99.90;;;;;;4921302;29;20592;-78
2022/05/31 08:17:30;;;;;;;5.80;3.03;;;17.40;99.90;;;;;;4920389;29;20048;-76
2022/05/31 08:19:56;;;;;;;3.40;3.00;;;17.50;99.90;;;;;;4902048;29;20046;-77
2022/05/31 08:22:22;;;;;;;4.38;3.33;;;17.60;99.90;;;;;;4907214;29;20048;-79
2022/05/31 08:24:49;;;;;;;4.53;3.10;;;17.70;99.90;;;;;;4887539;29;20060;-78
2022/05/31 08:27:15;;;;;;;4.50;3.50;;;17.90;99.90;;;;;;4892845;29;20052;-79
2022/05/31 08:29:42;;;;;;;4.80;3.30;;;17.90;99.90;;;;;;4894272;29;20140;-77
2022/05/31 08:32:08;;;;;;;5.90;3.83;;;18.20;99.90;;;;;;4906080;29;20044;-76
2022/05/31 08:34:34;;;;;;;4.35;3.40;;;18.30;99.90;;;;;;4904478;29;20063;-76
2022/05/31 08:37:00;;;;;;;4.65;3.20;;;18.60;99.90;;;;;;4905094;29;20577;-77
2022/05/31 08:39:26;;;;;;;5.10;3.60;;;19.00;99.90;;;;;;4910871;29;20403;-77
2022/05/31 08:42:09;;;;;;;7.20;3.38;;;19.10;99.90;;;;;;4920987;29;20615;-76
2022/05/31 08:44:42;;;;;;;4.05;2.90;;;19.30;99.90;;;;;;4921563;29;20076;-76
2022/05/31 08:47:22;;;;;;;5.15;2.95;;;19.50;99.90;;;;;;4905043;29;20131;-81
2022/05/31 08:52:58;;;;;;;4.82;2.25;;;19.70;99.90;;;;;;4904955;29;20143;-82
2022/05/31 08:58:41;;;;;;;7.45;2.72;;;19.70;99.50;;;;;;4909874;29;20135;-81
2022/05/31 09:01:11;;;;;;;4.18;2.38;;;19.90;99.20;;;;;;4902904;29;20088;-82
2022/05/31 09:03:51;;;;;;;4.15;2.50;;;20.20;99.50;;;;;;4912128;29;20044;-81
2022/05/31 09:06:25;;;;;;;3.83;2.35;;;20.30;97.40;;;;;;4927223;29;20080;-80
2022/05/31 09:09:23;;;;;;;4.03;2.53;;;20.50;97.50;;;;;;4912125;29;20812;-81
2022/05/31 09:12:03;;;;;;;3.65;2.53;;;20.90;94.80;;;;;;4898922;29;20111;-80
2022/05/31 09:14:41;;;;;;;9.65;2.58;;;21.30;95.10;;;;;;4903799;29;20049;-81
2022/05/31 09:17:53;;;;;;;4.65;2.70;;;21.40;95.70;;;;;;4892216;29;20049;-81
2022/05/31 09:20:55;;;;;;;6.13;2.50;;;21.70;94.20;;;;;;4884046;29;20048;-80
2022/05/31 09:23:25;;;;;;;4.93;2.58;;;21.90;93.00;;;;;;4906923;29;20071;-78
2022/05/31 09:26:16;;;;;;;3.88;2.33;;;21.90;94.20;;;;;;4913450;29;20052;-80
2022/05/31 09:28:47;;;;;;;5.95;2.55;;;22.10;92.10;;;;;;4891664;29;20056;-80
2022/05/31 09:31:33;;;;;;;11.90;2.85;;;21.70;92.40;;;;;;4906030;29;20847;-79
2022/05/31 09:34:22;;;;;;;4.35;2.30;;;21.30;90.30;;;;;;4915029;29;20060;-80
2022/05/31 09:37:11;;;;;;;3.83;2.63;;;20.60;91.40;;;;;;4911048;29;20451;-82
2022/05/31 09:39:59;;;;;;;5.60;2.70;;;20.90;90.90;;;;;;4892853;29;20070;-81
2022/05/31 09:42:32;;;;;;;4.35;2.42;;;20.70;92.30;;;;;;4908806;29;20486;-79
2022/05/31 09:45:09;;;;;;;3.75;2.20;;;20.70;92.70;;;;;;4897284;29;20162;-78
2022/05/31 09:47:35;;;;;;;4.80;2.70;;;20.70;92.10;;;;;;4907927;29;20044;-79
2022/05/31 09:50:01;;;;;;;3.80;2.72;;;20.70;92.70;;;;;;4913550;29;20056;-80
2022/05/31 09:52:43;;;;;;;5.10;2.80;;;20.70;92.30;;;;;;4894504;29;20495;-79
2022/05/31 09:58:02;;;;;;;3.90;2.40;;;20.60;91.90;;;;;;4910580;29;20052;-80
2022/05/31 10:00:28;;;;;;;3.97;2.90;;;20.40;92.10;;;;;;4914530;29;20080;-79
2022/05/31 10:03:03;;;;;;;7.97;3.00;;;20.00;92.80;;;;;;4911188;29;20086;-80
2022/05/31 10:05:29;;;;;;;3.90;2.92;;;19.60;93.00;;;;;;4906838;29;20040;-79
2022/05/31 10:07:55;;;;;;;4.85;3.30;;;19.30;94.30;;;;;;4907376;29;20051;-81
2022/05/31 10:10:27;;;;;;;5.93;3.17;;;19.20;94.20;;;;;;4906376;29;20076;-77
2022/05/31 10:13:03;;;;;;;8.82;3.90;;;19.10;94.90;;;;;;4912665;29;20054;-79
2022/05/31 10:15:52;;;;;;;6.35;3.78;;;19.00;95.80;;;;;;4910334;29;20043;-77
2022/05/31 10:18:28;;;;;;;5.70;3.38;;;18.80;96.50;;;;;;4909766;29;20051;-77
2022/05/31 10:21:04;;;;;;;5.78;3.80;;;18.70;96.40;;;;;;4891932;29;20086;-77
2022/05/31 10:23:43;;;;;;;5.13;4.15;;;18.50;97.80;;;;;;4911318;29;20052;-79
2022/05/31 10:26:26;;;;;;;6.60;3.80;;;18.50;99.20;;;;;;4896332;29;20056;-76
2022/05/31 10:28:58;;;;;;;6.20;4.00;;;18.50;99.70;;;;;;4911845;29;20147;-77
2022/05/31 10:31:34;;;;;;;5.65;3.65;;;18.50;99.90;;;;;;4923005;29;20508;-77
2022/05/31 10:34:01;;;;;;;;;;;18.60;99.80;;;;;;4925078;29;20048;-77
2022/05/31 10:36:48;;;;;;;6.53;4.05;;;18.70;99.90;;;;;;4909009;29;20381;-77
2022/05/31 10:39:20;;;;;;;5.85;4.07;;;19.00;99.60;;;;;;4909975;29;20524;-76
2022/05/31 10:41:47;;;;;;;5.68;4.10;;;19.70;99.50;;;;;;4919379;29;20057;-75
2022/05/31 10:44:35;;;;;;;5.38;3.72;;;20.30;98.70;;;;;;4905737;29;20055;-77
2022/05/31 10:47:13;;;;;;;5.00;3.40;;;20.70;97.60;;;;;;4890767;29;20088;-82
2022/05/31 10:49:40;;;;;;;5.90;3.92;;;20.80;97.20;;;;;;4903511;29;20044;-80
2022/05/31 10:52:35;;;;;;;5.30;3.58;;;20.70;96.50;;;;;;4880663;29;20068;-79
2022/05/31 10:55:39;;;;;;;7.35;3.40;;;20.50;95.70;;;;;;4912988;29;20063;-78
2022/05/31 10:58:21;;;;;;;4.03;3.30;;;20.10;96.70;;;;;;4904741;29;20053;-80
2022/05/31 11:00:54;;;;;;;4.78;3.72;;;19.80;97.70;;;;;;4908498;29;20057;-79
2022/05/31 11:03:45;;;;;;;3.80;3.33;;;19.90;97.70;;;;;;4904846;29;20144;-78
2022/05/31 11:06:39;;;;;;;4.32;3.92;;;19.40;97.20;;;;;;4913237;29;20476;-77
2022/05/31 11:12:22;;;;;;;5.72;3.85;;;19.20;98.10;;;;;;4910095;29;20076;-78
2022/05/31 11:15:01;;;;;;;5.70;3.78;;;18.90;98.10;;;;;;4903484;29;20107;-78
2022/05/31 11:17:39;;;;;;;3.80;3.28;;;18.90;98.60;;;;;;4918689;29;20195;-78
2022/05/31 11:20:14;;;;;;;4.88;3.40;;;18.90;98.60;;;;;;4911063;29;20609;-78
2022/05/31 11:23:12;;;;;;;6.13;3.50;;;18.90;98.60;;;;;;4903678;29;20044;-78
2022/05/31 11:25:51;;;;;;;5.70;4.30;;;19.10;99.10;;;;;;4903755;29;20048;-78
2022/05/31 11:28:45;;;;;;;6.30;3.90;;;19.20;98.90;;;;;;4906974;29;20055;-77
2022/05/31 11:31:30;;;;;;;5.00;4.43;;;19.20;98.90;;;;;;4895720;29;20255;-77
2022/05/31 11:34:48;;;;;;;7.03;4.90;;;19.50;98.70;;;;;;4910362;29;20067;-77
2022/05/31 11:37:35;;;;;;;5.88;3.90;;;20.20;98.70;;;;;;4921212;29;20052;-77
2022/05/31 11:40:30;;;;;;;6.55;4.30;;;20.50;97.90;;;;;;4919548;29;20490;-78
2022/05/31 11:43:31;;;;;;;6.18;4.50;;;20.40;97.80;;;;;;4893772;29;20919;-77
2022/05/31 11:46:18;;;;;;;5.30;4.47;;;20.30;97.20;;;;;;4904612;29;20067;-77
2022/05/31 11:48:47;;;;;;;5.80;4.43;;;20.00;97.70;;;;;;4909237;29;20064;-77
2022/05/31 11:51:46;;;;;;;5.35;4.00;;;19.70;98.10;;;;;;4906481;29;20064;-77
2022/05/31 11:54:31;;;;;;;9.27;4.63;;;19.40;97.30;;;;;;4910079;29;20103;-78
2022/05/31 11:57:12;;;;;;;7.03;4.63;;;19.10;98.00;;;;;;4909309;29;20398;-77
2022/05/31 12:00:08;;;;;;;7.68;4.80;;;18.90;98.60;;;;;;4909171;29;20478;-79
2022/05/31 12:02:46;;;;;;;7.50;4.82;;;18.50;98.10;;;;;;4906180;29;20067;-77
2022/05/31 12:05:30;;;;;;;8.02;4.80;;;18.30;99.00;;;;;;4919581;29;20140;-78
2022/05/31 12:08:10;;;;;;;5.47;4.20;;;18.20;99.40;;;;;;4902803;29;20044;-79
2022/05/31 12:10:43;;;;;;;5.72;4.65;;;18.10;99.90;;;;;;4917010;29;20445;-77
2022/05/31 12:13:11;;;;;;;7.18;4.70;;;18.10;99.90;;;;;;4903808;29;20147;-83
2022/05/31 12:15:43;;;;;;;6.10;4.72;;;18.00;99.90;;;;;;4898064;29;20040;-77
2022/05/31 12:18:30;;;;;;;6.38;4.53;;;18.00;99.90;;;;;;4907432;29;20131;-77
2022/05/31 12:21:29;;;;;;;5.03;2.97;;;17.90;99.90;;;;;;4909265;29;20694;-77
2022/05/31 12:24:40;;;;;;;5.10;3.17;;;17.90;99.90;;;;;;4900200;29;20056;-77
2022/05/31 12:27:13;;;;;;;6.20;3.45;;;18.00;99.90;;;;;;4868377;29;20080;-77
2022/05/31 12:29:58;;;;;;;5.22;3.72;;;18.00;99.90;;;;;;4917458;29;20075;-77
2022/05/31 12:32:27;;;;;;;6.18;4.32;;;18.00;99.90;;;;;;4903125;29;20128;-77
2022/05/31 12:34:54;;;;;;;5.15;4.15;;;18.00;99.90;;;;;;4901996;29;20055;-77
2022/05/31 12:37:20;;;;;;;6.90;3.95;;;18.00;99.90;;;;;;4906602;29;20887;-77
2022/05/31 12:39:47;;;;;;;7.93;4.13;;;17.90;99.90;;;;;;4904127;29;20056;-76
2022/05/31 12:42:32;;;;;;;6.95;4.18;;;18.00;99.90;;;;;;4887739;29;20454;-77
2022/05/31 12:45:33;;;;;;;5.53;4.30;;;18.00;99.90;;;;;;4886103;29;20052;-77
2022/05/31 12:48:27;;;;;;;6.38;4.85;;;18.10;99.90;;;;;;4884465;29;20142;-77
2022/05/31 12:50:55;;;;;;;8.68;5.25;;;18.20;99.90;;;;;;4901413;29;20071;-77
2022/05/31 12:53:40;;;;;;;6.75;4.65;;;18.40;99.90;;;;;;4910087;29;20551;-76
2022/05/31 12:56:36;;;;;;;7.43;4.68;;;18.50;99.90;;;;;;4902919;29;20080;-77
2022/05/31 12:59:03;;;;;;;;;;;18.60;99.50;;;;;;4901908;29;20060;-77
2022/05/31 13:01:29;;;;;;;7.75;4.88;;;18.60;99.70;;;;;;4918719;29;19954;-77
2022/05/31 13:04:08;;;;;;;5.95;4.85;;;18.70;99.90;;;;;;4907811;29;20056;-77
2022/05/31 13:07:08;;;;;;;5.88;4.38;;;18.80;99.80;;;;;;4907385;29;20048;-77
2022/05/31 13:09:40;;;;;;;6.68;4.85;;;19.00;99.10;;;;;;4894572;29;20066;-77
2022/05/31 13:21:07;;;;;;;5.28;4.35;;;19.10;98.30;;;;;;4918225;29;20051;-77
2022/05/31 13:23:46;;;;;;;7.40;5.03;;;19.10;98.20;;;;;;4906929;29;20048;-77
2022/05/31 13:26:19;;;;;;;6.32;4.40;;;19.30;98.20;;;;;;4906988;29;20506;-77
2022/05/31 13:29:01;;;;;;;7.18;4.53;;;19.60;98.20;;;;;;4919143;29;20148;-77
2022/05/31 13:31:30;;;;;;;6.65;3.95;;;19.70;97.60;;;;;;4901764;29;20048;-77
2022/05/31 13:34:03;;;;;;;7.68;4.35;;;19.80;97.60;;;;;;4903224;29;20056;-77
2022/05/31 13:36:32;;;;;;;4.85;3.40;;;20.00;97.40;;;;;;4906398;29;20055;-76
2022/05/31 13:39:04;;;;;;;6.57;3.28;;;20.20;97.20;;;;;;4909045;29;20507;-76
2022/05/31 13:41:31;;;;;;;5.35;3.35;;;20.50;96.90;;;;;;4909507;29;20123;-77
2022/05/31 13:44:00;;;;;;;5.43;3.85;;;20.90;96.40;;;;;;4903163;29;20557;-75
2022/05/31 13:46:40;;;;;;;4.22;3.35;;;21.20;95.20;;;;;;4908460;29;20077;-77
2022/05/31 13:49:18;;;;;;;5.28;3.70;;;21.80;94.90;;;;;;4908342;29;20177;-77
2022/05/31 13:51:58;;;;;;;6.07;3.47;;;22.50;94.70;;;;;;4917895;29;20071;-77
2022/05/31 13:54:28;;;;;;;4.53;3.70;;;23.20;93.60;;;;;;4909923;29;20056;-77